Time;durP1;ratioP1;P1;durP2;ratioP2;P2;SDS_P1;SDS_P2;PMS_P1;PMS_P2;Temp;Humidity;BMP_temperature;BMP_pressure;BME280_temperature;BME280_humidity;BME280_pressure;Samples;Min_cycle;Max_cycle;Signal;HPM_P1;HPM_P2
2022/11/01 00:01:39;;;;;;;6.57;3.67;;;13.10;99.90;;;;;;5011323;28;20315;-66
2022/11/01 00:04:05;;;;;;;5.70;2.23;;;13.10;99.90;;;;;;5011678;28;20651;-66
2022/11/01 00:06:31;;;;;;;7.33;2.90;;;13.00;99.90;;;;;;5011676;28;20258;-66
2022/11/01 00:08:56;;;;;;;5.40;3.00;;;12.90;99.90;;;;;;5002339;28;20264;-66
2022/11/01 00:11:22;;;;;;;4.50;2.70;;;12.90;99.90;;;;;;5011976;28;20301;-66
2022/11/01 00:13:49;;;;;;;4.40;2.60;;;12.80;99.90;;;;;;5010962;28;20194;-66
2022/11/01 00:16:15;;;;;;;5.93;2.37;;;12.80;99.90;;;;;;5012241;28;20189;-66
2022/11/01 00:18:41;;;;;;;9.63;2.90;;;12.80;99.90;;;;;;5011394;28;20468;-66
2022/11/01 00:21:07;;;;;;;5.43;3.07;;;12.80;99.90;;;;;;5002955;28;20418;-66
2022/11/01 00:23:33;;;;;;;8.60;2.47;;;12.80;99.90;;;;;;5011228;28;20258;-66
2022/11/01 00:25:59;;;;;;;7.70;3.30;;;12.70;99.90;;;;;;5011848;28;20618;-66
2022/11/01 00:28:26;;;;;;;9.30;3.73;;;12.70;99.90;;;;;;5011095;28;20215;-66
2022/11/01 00:30:53;;;;;;;3.93;2.00;;;12.70;99.90;;;;;;5011163;28;20480;-66
2022/11/01 00:33:19;;;;;;;8.27;2.57;;;12.70;99.90;;;;;;5012404;28;20780;-66
2022/11/01 00:35:47;;;;;;;6.23;1.70;;;12.80;99.90;;;;;;5015802;28;20430;-66
2022/11/01 00:38:15;;;;;;;7.37;2.70;;;12.70;99.90;;;;;;5015239;28;20301;-66
2022/11/01 00:40:41;;;;;;;4.67;2.07;;;12.80;99.90;;;;;;5015734;28;20426;-66
2022/11/01 00:43:07;;;;;;;3.40;2.20;;;12.80;99.90;;;;;;5014349;28;20430;-66
2022/11/01 00:45:33;;;;;;;7.50;1.90;;;12.70;99.90;;;;;;5015573;28;20425;-66
2022/11/01 00:47:58;;;;;;;4.83;2.17;;;12.70;99.90;;;;;;5013719;28;20190;-66
2022/11/01 00:50:24;;;;;;;4.50;1.77;;;12.70;99.90;;;;;;5007166;28;20705;-65
2022/11/01 00:52:50;;;;;;;16.20;3.00;;;12.70;99.90;;;;;;5001628;28;20200;-65
2022/11/01 00:55:16;;;;;;;4.23;2.50;;;12.70;99.90;;;;;;5015478;28;20413;-66
2022/11/01 00:57:44;;;;;;;7.77;3.03;;;12.70;99.90;;;;;;5015122;28;21012;-65
2022/11/01 01:00:11;;;;;;;12.87;3.40;;;12.70;99.90;;;;;;5015625;28;20670;-66
2022/11/01 01:02:36;;;;;;;20.53;3.33;;;12.60;99.90;;;;;;5014436;28;20414;-65
2022/11/01 01:05:02;;;;;;;3.10;2.00;;;12.60;99.90;;;;;;5015300;28;20429;-66
2022/11/01 01:07:28;;;;;;;4.50;2.40;;;12.50;99.90;;;;;;5012688;28;20196;-66
2022/11/01 01:09:53;;;;;;;4.83;2.80;;;12.50;99.90;;;;;;5008064;28;20273;-65
2022/11/01 01:12:19;;;;;;;6.90;2.40;;;12.40;99.90;;;;;;5012753;28;20238;-66
2022/11/01 01:14:45;;;;;;;6.83;2.63;;;12.30;99.90;;;;;;5014574;28;20191;-66
2022/11/01 01:17:10;;;;;;;6.03;2.77;;;12.30;99.90;;;;;;5014835;28;20557;-66
2022/11/01 01:19:36;;;;;;;5.50;3.17;;;12.20;99.90;;;;;;5011047;28;20183;-66
2022/11/01 01:22:02;;;;;;;13.33;2.47;;;12.20;99.90;;;;;;5008792;28;20666;-66
2022/11/01 01:24:27;;;;;;;7.20;3.07;;;12.20;99.90;;;;;;5014803;28;20183;-66
2022/11/01 01:26:53;;;;;;;7.83;2.50;;;12.20;99.90;;;;;;5014434;28;20179;-66
2022/11/01 01:29:19;;;;;;;5.83;2.40;;;12.20;99.90;;;;;;5014678;28;20187;-66
2022/11/01 01:31:44;;;;;;;3.90;1.77;;;12.10;99.90;;;;;;5013634;28;20191;-66
2022/11/01 01:34:10;;;;;;;7.33;3.37;;;12.10;99.90;;;;;;5014332;28;20240;-66
2022/11/01 01:36:35;;;;;;;8.23;2.83;;;12.10;99.90;;;;;;5010633;28;20187;-66
2022/11/01 01:39:01;;;;;;;4.50;2.50;;;12.10;99.90;;;;;;5014318;28;20242;-66
2022/11/01 01:45:06;;;;;;;6.13;2.57;;;12.20;99.90;;;;;;5014384;28;20417;-66
2022/11/01 01:47:35;;;;;;;3.47;2.40;;;12.20;99.90;;;;;;5005465;28;20476;-66
2022/11/01 01:50:22;;;;;;;8.57;3.20;;;12.20;99.90;;;;;;5014455;28;20418;-66
2022/11/01 01:53:00;;;;;;;5.27;2.80;;;12.20;99.90;;;;;;5012178;28;20922;-66
2022/11/01 01:55:34;;;;;;;6.40;3.13;;;12.20;99.90;;;;;;5014250;28;20426;-66
2022/11/01 01:57:59;;;;;;;11.13;2.43;;;12.30;99.90;;;;;;5013597;28;20466;-66
2022/11/01 02:00:26;;;;;;;4.50;1.93;;;12.30;99.90;;;;;;5013652;28;20919;-66
2022/11/01 02:02:52;;;;;;;5.27;2.50;;;12.40;99.90;;;;;;5011649;28;20202;-66
2022/11/01 02:05:32;;;;;;;5.20;2.73;;;12.30;99.90;;;;;;5013801;28;20426;-66
2022/11/01 02:07:59;;;;;;;4.57;2.40;;;12.30;99.90;;;;;;5011733;28;20189;-66
2022/11/01 02:10:26;;;;;;;11.10;3.20;;;12.30;99.90;;;;;;5006887;28;20429;-66
2022/11/01 02:12:51;;;;;;;6.00;2.77;;;12.30;99.90;;;;;;5012938;28;20530;-66
2022/11/01 02:15:22;;;;;;;9.30;2.93;;;12.30;99.90;;;;;;5013910;28;20524;-66
2022/11/01 02:18:19;;;;;;;11.73;2.10;;;12.30;99.90;;;;;;5013290;28;20949;-66
2022/11/01 02:21:12;;;;;;;4.97;2.27;;;12.30;99.90;;;;;;5004975;28;20438;-66
2022/11/01 02:23:59;;;;;;;6.20;2.23;;;12.30;99.90;;;;;;5013526;28;20419;-66
2022/11/01 02:26:25;;;;;;;16.80;2.93;;;12.30;99.90;;;;;;5013641;28;20410;-66
2022/11/01 02:29:14;;;;;;;7.30;3.37;;;12.30;99.90;;;;;;5005010;28;20891;-66
2022/11/01 02:32:07;;;;;;;6.23;3.13;;;12.30;99.90;;;;;;5012617;28;20218;-65
2022/11/01 02:35:23;;;;;;;9.13;2.90;;;12.30;99.90;;;;;;5012287;28;20509;-66
2022/11/01 02:37:57;;;;;;;5.70;2.43;;;12.30;99.90;;;;;;4971796;28;20931;-66
2022/11/01 02:40:55;;;;;;;17.83;2.77;;;12.40;99.90;;;;;;5013390;28;20438;-66
2022/11/01 02:43:48;;;;;;;8.13;2.70;;;12.40;99.90;;;;;;4998990;28;20545;-66
2022/11/01 02:49:01;;;;;;;13.83;2.70;;;12.40;99.90;;;;;;5013130;28;20568;-66
2022/11/01 02:51:28;;;;;;;15.53;2.70;;;12.40;99.90;;;;;;5012890;28;20513;-66
2022/11/01 02:53:53;;;;;;;9.03;2.50;;;12.50;99.90;;;;;;5013087;28;20448;-65
2022/11/01 02:56:21;;;;;;;6.73;3.03;;;12.60;99.90;;;;;;5012462;28;20959;-66
2022/11/01 02:58:50;;;;;;;8.33;2.47;;;12.60;99.90;;;;;;5012538;28;20547;-66
2022/11/01 03:01:21;;;;;;;10.50;2.43;;;12.70;99.90;;;;;;5012980;28;20425;-66
2022/11/01 03:03:50;;;;;;;4.30;2.57;;;12.80;99.90;;;;;;5012482;28;20902;-66
2022/11/01 03:06:26;;;;;;;5.93;3.30;;;13.00;99.90;;;;;;5012935;28;20885;-65
2022/11/01 03:08:58;;;;;;;7.80;2.43;;;13.10;99.90;;;;;;5003909;28;20422;-66
2022/11/01 03:11:52;;;;;;;6.80;2.93;;;13.30;99.90;;;;;;5012628;28;20425;-65
2022/11/01 03:14:41;;;;;;;7.07;2.37;;;13.30;99.90;;;;;;5012964;28;20422;-66
2022/11/01 03:17:10;;;;;;;5.87;2.60;;;13.40;99.90;;;;;;5011169;28;20469;-66
2022/11/01 03:20:03;;;;;;;17.03;3.10;;;13.50;99.90;;;;;;5002693;28;20748;-66
2022/11/01 03:22:42;;;;;;;7.20;2.37;;;13.70;99.90;;;;;;5011295;28;20418;-66
2022/11/01 03:25:38;;;;;;;3.30;1.80;;;13.60;99.90;;;;;;5012788;28;20410;-66
2022/11/01 03:28:50;;;;;;;2.80;1.43;;;13.90;99.90;;;;;;5012043;28;20425;-65
2022/11/01 03:31:24;;;;;;;4.03;1.47;;;14.10;99.90;;;;;;5009638;28;20438;-66
2022/11/01 03:34:00;;;;;;;10.23;2.30;;;14.40;99.90;;;;;;5011433;28;20882;-66
2022/11/01 03:36:33;;;;;;;11.10;2.50;;;14.50;99.90;;;;;;5012309;28;20422;-66
2022/11/01 03:39:04;;;;;;;5.00;1.87;;;14.60;99.90;;;;;;5012450;28;20837;-66
2022/11/01 03:41:35;;;;;;;5.07;1.50;;;14.70;99.90;;;;;;5011756;28;20815;-66
2022/11/01 03:44:01;;;;;;;6.73;2.30;;;14.60;99.90;;;;;;5011893;28;20433;-65
2022/11/01 03:46:27;;;;;;;9.77;2.50;;;14.60;99.90;;;;;;5011739;28;20420;-65
2022/11/01 03:48:53;;;;;;;6.83;1.60;;;14.60;99.90;;;;;;5011418;28;20415;-64
2022/11/01 03:51:18;;;;;;;5.07;2.13;;;14.50;99.90;;;;;;5012162;28;20531;-64
2022/11/01 03:53:44;;;;;;;2.40;1.77;;;14.50;99.90;;;;;;5011801;28;20203;-65
2022/11/01 03:56:09;;;;;;;4.73;2.17;;;14.40;99.90;;;;;;5012217;28;20182;-65
2022/11/01 03:58:42;;;;;;;3.93;1.77;;;14.30;99.90;;;;;;5011747;28;20745;-65
2022/11/01 04:01:09;;;;;;;15.53;2.90;;;14.20;99.90;;;;;;5010916;28;20186;-65
2022/11/01 04:03:34;;;;;;;4.13;2.20;;;14.30;99.90;;;;;;5011493;28;20418;-65
2022/11/01 04:06:00;;;;;;;7.33;1.73;;;14.30;99.90;;;;;;5012178;28;20433;-65
2022/11/01 04:08:25;;;;;;;4.80;1.67;;;14.20;99.90;;;;;;5005543;28;20180;-64
2022/11/01 04:10:51;;;;;;;10.13;2.10;;;14.20;99.90;;;;;;5008964;28;20274;-65
2022/11/01 04:13:17;;;;;;;3.73;2.33;;;14.20;99.90;;;;;;5011081;28;20191;-65
2022/11/01 04:21:16;;;;;;;7.20;2.03;;;14.10;99.90;;;;;;5003161;28;20428;-65
2022/11/01 04:23:43;;;;;;;5.13;2.50;;;14.10;99.90;;;;;;5011506;28;20418;-64
2022/11/01 04:26:14;;;;;;;11.30;2.13;;;14.00;99.90;;;;;;5012032;28;20416;-65
2022/11/01 04:28:40;;;;;;;10.40;2.07;;;14.10;99.90;;;;;;5011463;28;20426;-65
2022/11/01 04:31:07;;;;;;;4.13;2.03;;;14.10;99.90;;;;;;5011448;28;20509;-65
2022/11/01 04:33:32;;;;;;;3.20;1.83;;;14.20;99.90;;;;;;5013615;28;20187;-66
2022/11/01 04:36:03;;;;;;;2.60;1.43;;;14.20;99.90;;;;;;5015132;28;20421;-66
2022/11/01 04:38:29;;;;;;;3.23;1.40;;;14.30;99.90;;;;;;5001317;28;20558;-64
2022/11/01 04:40:55;;;;;;;3.43;1.70;;;14.30;99.90;;;;;;5015132;28;20472;-65
2022/11/01 04:43:22;;;;;;;3.40;1.83;;;14.30;99.90;;;;;;5012771;28;20205;-65
2022/11/01 04:45:54;;;;;;;9.60;1.70;;;14.30;99.90;;;;;;5013472;28;20183;-65
2022/11/01 04:48:20;;;;;;;2.90;1.40;;;14.30;99.90;;;;;;5015190;28;20418;-64
2022/11/01 04:50:46;;;;;;;3.67;1.33;;;14.20;99.90;;;;;;5018561;28;20445;-65
2022/11/01 04:53:12;;;;;;;5.70;1.90;;;14.20;99.90;;;;;;5022470;28;20213;-64
2022/11/01 04:55:38;;;;;;;6.83;1.40;;;14.30;99.90;;;;;;5023362;28;20242;-64
2022/11/01 04:58:05;;;;;;;1.60;1.00;;;14.30;99.90;;;;;;5022446;28;20482;-64
2022/11/01 05:00:32;;;;;;;2.97;1.40;;;14.40;99.90;;;;;;5021496;28;20183;-65
2022/11/01 05:03:02;;;;;;;2.17;1.10;;;14.30;99.90;;;;;;5012871;28;20457;-65
2022/11/01 05:05:27;;;;;;;1.83;0.97;;;14.40;99.90;;;;;;5011598;28;20420;-65
2022/11/01 05:08:10;;;;;;;1.87;1.00;;;14.50;99.90;;;;;;5006456;28;20425;-65
2022/11/01 05:10:38;;;;;;;4.40;1.90;;;14.50;99.90;;;;;;5005792;28;20175;-65
2022/11/01 05:13:04;;;;;;;1.93;0.93;;;14.60;99.90;;;;;;5010592;28;20418;-65
2022/11/01 05:15:30;;;;;;;5.97;1.73;;;14.60;99.90;;;;;;5011364;28;20428;-66
2022/11/01 05:17:58;;;;;;;3.97;1.00;;;14.60;99.90;;;;;;5011141;28;20553;-65
2022/11/01 05:20:24;;;;;;;1.40;0.80;;;14.60;99.90;;;;;;5003786;28;20287;-65
2022/11/01 05:22:50;;;;;;;2.07;0.70;;;14.50;99.90;;;;;;5014247;28;20500;-64
2022/11/01 05:25:16;;;;;;;1.70;0.77;;;14.60;99.90;;;;;;5014869;28;20628;-64
2022/11/01 05:27:42;;;;;;;2.57;0.80;;;14.60;99.90;;;;;;5014499;28;20195;-64
2022/11/01 05:30:09;;;;;;;8.70;1.73;;;14.50;99.90;;;;;;5014112;28;20917;-65
2022/11/01 05:32:36;;;;;;;2.87;0.90;;;14.40;99.90;;;;;;5014312;28;20187;-65
2022/11/01 05:35:03;;;;;;;1.47;0.70;;;14.30;99.90;;;;;;5014421;28;20450;-64
2022/11/01 05:37:29;;;;;;;4.33;1.03;;;14.30;99.90;;;;;;5014844;28;20453;-65
2022/11/01 05:39:54;;;;;;;5.67;1.47;;;14.20;99.90;;;;;;5014909;28;20484;-65
2022/11/01 05:42:20;;;;;;;2.00;0.80;;;14.10;99.90;;;;;;5013742;28;20183;-65
2022/11/01 05:44:45;;;;;;;3.57;1.33;;;14.00;99.90;;;;;;5014406;28;20249;-65
2022/11/01 05:47:11;;;;;;;1.40;0.60;;;13.90;99.90;;;;;;5014345;28;20225;-65
2022/11/01 05:49:36;;;;;;;3.53;1.00;;;13.90;99.90;;;;;;5005967;28;20815;-65
2022/11/01 05:52:02;;;;;;;1.43;0.60;;;13.80;99.90;;;;;;5013961;28;20190;-64
2022/11/01 05:54:28;;;;;;;2.63;1.00;;;13.70;99.90;;;;;;5014158;28;20206;-65
2022/11/01 05:56:53;;;;;;;1.70;0.83;;;13.70;99.90;;;;;;5013498;28;20179;-65
2022/11/01 05:59:19;;;;;;;3.30;1.23;;;13.70;99.90;;;;;;5014320;28;20183;-65
2022/11/01 06:01:44;;;;;;;5.10;1.10;;;13.70;99.90;;;;;;5013820;28;20187;-65
2022/11/01 06:04:10;;;;;;;2.30;0.73;;;13.70;99.90;;;;;;5013794;28;20186;-65
2022/11/01 06:06:35;;;;;;;1.37;0.70;;;13.60;99.90;;;;;;5013936;28;20214;-65
2022/11/01 06:09:01;;;;;;;1.80;1.00;;;13.60;99.90;;;;;;5004746;28;20191;-64
2022/11/01 06:11:27;;;;;;;1.97;0.83;;;13.50;99.90;;;;;;5013496;28;20233;-65
2022/11/01 06:13:57;;;;;;;2.53;1.10;;;13.50;99.90;;;;;;5026057;28;20834;-65
2022/11/01 06:16:25;;;;;;;2.90;0.80;;;13.40;99.90;;;;;;5014071;28;20622;-65
2022/11/01 06:18:51;;;;;;;2.07;0.93;;;13.30;99.90;;;;;;5013628;28;20466;-65
2022/11/01 06:21:16;;;;;;;2.30;0.80;;;13.30;99.90;;;;;;5005662;28;20425;-66
2022/11/01 06:23:46;;;;;;;3.57;0.70;;;13.30;99.90;;;;;;5014965;28;20422;-66
2022/11/01 06:26:12;;;;;;;1.30;0.70;;;13.30;99.90;;;;;;5014463;28;20179;-64
2022/11/01 06:28:38;;;;;;;1.53;0.80;;;13.40;99.90;;;;;;5013158;28;20425;-65
2022/11/01 06:31:03;;;;;;;1.57;0.80;;;13.30;99.90;;;;;;5011751;28;20659;-65
2022/11/01 06:33:30;;;;;;;1.43;0.70;;;13.30;99.90;;;;;;5012565;28;20195;-65
2022/11/01 06:35:56;;;;;;;2.00;1.07;;;13.30;99.90;;;;;;5013172;28;20173;-65
2022/11/01 06:38:21;;;;;;;2.10;1.07;;;13.30;99.90;;;;;;5011376;28;20489;-65
2022/11/01 06:40:47;;;;;;;2.90;0.70;;;13.30;99.90;;;;;;5006981;28;20429;-65
2022/11/01 06:43:13;;;;;;;1.57;0.83;;;13.30;99.90;;;;;;5012236;28;20185;-65
2022/11/01 06:45:38;;;;;;;2.07;0.83;;;13.50;99.90;;;;;;5013335;28;20220;-65
2022/11/01 06:48:04;;;;;;;3.30;1.00;;;13.40;99.90;;;;;;5013567;28;20225;-67
2022/11/01 06:50:31;;;;;;;1.40;0.67;;;13.40;99.90;;;;;;5013303;28;20557;-66
2022/11/01 06:52:58;;;;;;;2.03;0.90;;;13.40;99.90;;;;;;5013032;28;20442;-66
2022/11/01 06:55:27;;;;;;;1.40;0.60;;;13.40;99.90;;;;;;5001762;28;20946;-65
2022/11/01 06:57:55;;;;;;;1.80;0.73;;;13.50;99.90;;;;;;5011540;28;20488;-65
2022/11/01 07:00:21;;;;;;;1.50;0.80;;;13.40;99.90;;;;;;5011925;28;20466;-65
2022/11/01 07:02:47;;;;;;;1.97;0.93;;;13.40;99.90;;;;;;5012673;28;20968;-65
2022/11/01 07:05:12;;;;;;;1.20;0.50;;;13.30;99.90;;;;;;5011471;28;20513;-65
2022/11/01 07:07:38;;;;;;;1.60;0.70;;;13.30;99.90;;;;;;5010697;28;20186;-65
2022/11/01 07:10:04;;;;;;;2.07;0.80;;;13.30;99.90;;;;;;5006113;28;20179;-65
2022/11/01 07:12:30;;;;;;;1.30;0.50;;;13.30;99.90;;;;;;5012150;28;20442;-65
2022/11/01 07:14:55;;;;;;;1.50;0.60;;;13.30;99.90;;;;;;5013130;28;20453;-66
2022/11/01 07:17:21;;;;;;;1.30;0.60;;;13.30;99.90;;;;;;4999810;28;20242;-66
2022/11/01 07:19:46;;;;;;;1.60;0.60;;;13.30;99.90;;;;;;5007743;28;20187;-65
2022/11/01 07:22:13;;;;;;;1.13;0.40;;;13.30;99.90;;;;;;5008583;28;20195;-66
2022/11/01 07:24:39;;;;;;;1.97;0.70;;;13.40;99.90;;;;;;5013030;28;20175;-65
2022/11/01 07:27:04;;;;;;;1.50;0.83;;;13.40;99.90;;;;;;5012283;28;20421;-66
2022/11/01 07:29:30;;;;;;;1.80;0.60;;;13.40;99.90;;;;;;5006240;28;20176;-65
2022/11/01 07:31:56;;;;;;;1.63;0.80;;;13.50;99.90;;;;;;4995931;28;20266;-66
2022/11/01 07:34:21;;;;;;;1.67;0.80;;;13.60;99.90;;;;;;5013250;28;20687;-66
2022/11/01 07:36:50;;;;;;;2.23;0.70;;;13.50;99.90;;;;;;5013278;28;20265;-66
2022/11/01 07:39:16;;;;;;;2.07;1.03;;;13.60;99.90;;;;;;5013358;28;20222;-66
2022/11/01 07:41:41;;;;;;;1.30;0.60;;;13.70;99.90;;;;;;5011988;28;20919;-66
2022/11/01 07:44:07;;;;;;;1.87;0.70;;;13.70;99.90;;;;;;5012614;28;20219;-67
2022/11/01 07:46:32;;;;;;;1.30;0.50;;;13.70;99.90;;;;;;5012091;28;20210;-66
2022/11/01 07:48:59;;;;;;;1.20;0.50;;;13.70;99.90;;;;;;5010975;28;20673;-65
2022/11/01 07:51:24;;;;;;;1.73;0.80;;;13.80;99.90;;;;;;5012408;28;20185;-65
2022/11/01 07:53:50;;;;;;;1.20;0.50;;;13.90;99.90;;;;;;5011771;28;20437;-65
2022/11/01 07:56:16;;;;;;;1.50;0.60;;;13.80;99.90;;;;;;5012309;28;20262;-65
2022/11/01 07:58:42;;;;;;;1.73;1.00;;;13.90;99.90;;;;;;5011911;28;20199;-64
2022/11/01 08:01:09;;;;;;;1.53;0.60;;;13.90;99.90;;;;;;5011924;28;20183;-64
2022/11/01 08:03:34;;;;;;;1.60;0.70;;;14.00;99.90;;;;;;5011588;28;20422;-65
2022/11/01 08:06:00;;;;;;;6.63;0.63;;;14.00;99.90;;;;;;5011575;28;20421;-64
2022/11/01 08:08:25;;;;;;;1.60;0.70;;;14.10;99.90;;;;;;5011822;28;20273;-65
2022/11/01 08:10:51;;;;;;;1.40;0.60;;;14.00;99.90;;;;;;5011859;28;20183;-65
2022/11/01 08:13:19;;;;;;;1.30;0.50;;;14.10;99.90;;;;;;5011202;28;20183;-65
2022/11/01 08:15:46;;;;;;;1.50;0.70;;;14.20;99.90;;;;;;5011706;28;20225;-65
2022/11/01 08:18:12;;;;;;;3.37;0.70;;;14.20;99.90;;;;;;5011053;28;20465;-65
2022/11/01 08:20:39;;;;;;;4.80;1.30;;;14.20;99.90;;;;;;5002413;28;20766;-65
2022/11/01 08:23:05;;;;;;;2.33;1.00;;;14.20;99.90;;;;;;5009835;28;20191;-65
2022/11/01 08:25:31;;;;;;;1.70;0.70;;;14.30;99.90;;;;;;5011781;28;20426;-64
2022/11/01 08:28:05;;;;;;;1.40;0.60;;;14.30;99.90;;;;;;5011240;28;20189;-64
2022/11/01 08:30:31;;;;;;;1.37;0.53;;;14.30;99.90;;;;;;5010600;28;20705;-65
2022/11/01 08:33:01;;;;;;;1.47;0.50;;;14.50;99.90;;;;;;5011155;28;20434;-65
2022/11/01 08:35:27;;;;;;;1.70;0.60;;;14.50;99.90;;;;;;5011380;28;20760;-64
2022/11/01 08:37:53;;;;;;;1.20;0.50;;;14.40;99.90;;;;;;5011913;28;20458;-65
2022/11/01 08:40:20;;;;;;;1.57;0.60;;;14.50;99.90;;;;;;5011411;28;20460;-65
2022/11/01 08:42:46;;;;;;;1.20;0.50;;;14.60;99.90;;;;;;5010872;28;20890;-64
2022/11/01 08:45:12;;;;;;;1.40;0.60;;;14.60;99.90;;;;;;5011733;28;20422;-64
2022/11/01 08:47:39;;;;;;;1.70;0.60;;;14.60;99.90;;;;;;5011838;28;20426;-65
2022/11/01 08:50:06;;;;;;;1.20;0.50;;;14.70;99.90;;;;;;5011514;28;20531;-64
2022/11/01 08:52:32;;;;;;;2.37;0.63;;;14.70;99.90;;;;;;5010847;28;20422;-64
2022/11/01 08:54:57;;;;;;;3.00;0.53;;;14.80;99.90;;;;;;5014317;28;20432;-64
2022/11/01 08:57:23;;;;;;;1.60;0.63;;;14.90;99.90;;;;;;5014828;28;20636;-65
2022/11/01 08:59:48;;;;;;;1.50;0.60;;;14.80;99.90;;;;;;5015236;28;20548;-65
2022/11/01 09:02:14;;;;;;;1.40;0.47;;;14.90;99.90;;;;;;5014554;28;20179;-64
2022/11/01 09:04:39;;;;;;;1.20;0.50;;;14.90;99.90;;;;;;5014959;28;20187;-65
2022/11/01 09:07:05;;;;;;;1.20;0.40;;;14.90;99.90;;;;;;5013930;28;20176;-64
2022/11/01 09:09:31;;;;;;;1.20;0.40;;;14.90;99.90;;;;;;5006804;28;20179;-64
2022/11/01 09:11:56;;;;;;;1.20;0.40;;;14.90;99.90;;;;;;5014330;28;20207;-65
2022/11/01 09:14:23;;;;;;;1.20;0.50;;;14.90;99.90;;;;;;5015100;28;20211;-65
2022/11/01 09:16:52;;;;;;;1.30;0.50;;;15.00;99.90;;;;;;5014857;28;20176;-65
2022/11/01 09:19:18;;;;;;;1.20;0.40;;;15.00;99.90;;;;;;5013495;28;20470;-66
2022/11/01 09:21:44;;;;;;;1.20;0.50;;;15.00;99.90;;;;;;5006663;28;20464;-66
2022/11/01 09:24:11;;;;;;;1.40;0.60;;;15.10;99.90;;;;;;5014791;28;20418;-65
2022/11/01 09:26:37;;;;;;;1.67;0.60;;;15.20;99.90;;;;;;5014898;28;20422;-65
2022/11/01 09:29:03;;;;;;;1.50;0.70;;;15.30;99.90;;;;;;5015257;28;20429;-66
2022/11/01 09:31:28;;;;;;;1.60;0.50;;;15.40;99.90;;;;;;5013678;28;20426;-66
2022/11/01 09:33:57;;;;;;;1.53;0.70;;;15.60;99.90;;;;;;5014471;28;20331;-66
2022/11/01 09:36:24;;;;;;;1.53;0.60;;;15.80;99.90;;;;;;5013454;28;20187;-66
2022/11/01 09:38:50;;;;;;;1.20;0.50;;;15.90;99.90;;;;;;5014985;28;20540;-66
2022/11/01 09:41:30;;;;;;;1.80;0.60;;;15.90;99.90;;;;;;5014364;28;20425;-66
2022/11/01 09:43:58;;;;;;;1.20;0.50;;;16.10;99.90;;;;;;5014116;28;20402;-66
2022/11/01 09:46:27;;;;;;;2.23;0.70;;;16.20;99.90;;;;;;5014196;28;20413;-66
2022/11/01 09:48:55;;;;;;;1.30;0.50;;;16.30;99.90;;;;;;5014290;28;20465;-66
2022/11/01 09:51:23;;;;;;;1.30;0.50;;;16.40;99.90;;;;;;5013951;28;20429;-66
2022/11/01 09:53:53;;;;;;;2.03;0.60;;;16.50;99.90;;;;;;5013862;28;20438;-66
2022/11/01 09:56:33;;;;;;;1.40;0.63;;;16.50;99.90;;;;;;5013895;28;20418;-66
2022/11/01 09:59:34;;;;;;;2.17;0.77;;;16.60;99.90;;;;;;5001195;28;20490;-66
2022/11/01 10:02:20;;;;;;;1.20;0.40;;;16.80;99.90;;;;;;4990413;28;20421;-66
2022/11/01 10:05:08;;;;;;;1.40;0.67;;;17.00;99.90;;;;;;5013694;28;20414;-65
2022/11/01 10:08:05;;;;;;;1.77;0.90;;;17.10;99.90;;;;;;5011628;28;20427;-66
2022/11/01 10:10:37;;;;;;;1.37;0.53;;;17.10;99.90;;;;;;5009638;28;20541;-66
2022/11/01 10:13:34;;;;;;;1.80;0.70;;;17.10;99.90;;;;;;5008443;28;20418;-66
2022/11/01 10:16:24;;;;;;;1.50;0.70;;;17.10;99.90;;;;;;5014236;28;20433;-66
2022/11/01 10:19:15;;;;;;;1.37;0.57;;;17.30;99.90;;;;;;5013725;28;20461;-66
2022/11/01 10:21:47;;;;;;;1.40;0.60;;;17.20;99.90;;;;;;5005148;28;20406;-66
2022/11/01 10:24:22;;;;;;;1.67;0.60;;;17.30;99.90;;;;;;5014075;28;20422;-66
2022/11/01 10:26:53;;;;;;;1.20;0.40;;;17.30;99.90;;;;;;5013345;28;20483;-66
2022/11/01 10:30:00;;;;;;;1.40;0.50;;;17.30;99.90;;;;;;5014172;28;20449;-66
2022/11/01 10:32:46;;;;;;;1.87;0.73;;;17.50;99.90;;;;;;4980861;28;20492;-66
2022/11/01 10:35:32;;;;;;;3.83;0.93;;;17.50;99.90;;;;;;5015562;28;20473;-66
2022/11/01 10:38:40;;;;;;;1.27;0.50;;;17.60;99.90;;;;;;5018268;28;20508;-67
2022/11/01 10:41:24;;;;;;;1.40;0.50;;;17.50;99.90;;;;;;5014658;28;20801;-65
2022/11/01 10:43:56;;;;;;;1.53;0.63;;;17.50;99.90;;;;;;5004641;28;20423;-66
2022/11/01 10:46:27;;;;;;;1.40;0.70;;;17.40;99.90;;;;;;5013727;28;20411;-66
2022/11/01 10:49:27;;;;;;;14.83;0.90;;;17.50;99.90;;;;;;5005759;28;20443;-66
2022/11/01 10:51:59;;;;;;;2.27;0.90;;;17.30;99.90;;;;;;5012734;28;20418;-66
2022/11/01 10:54:29;;;;;;;1.70;0.60;;;17.30;99.90;;;;;;5013225;28;20485;-66
2022/11/01 10:56:59;;;;;;;4.03;0.60;;;17.20;99.90;;;;;;5012605;28;20410;-66
2022/11/01 10:59:35;;;;;;;1.60;0.80;;;17.20;99.90;;;;;;5013192;28;20433;-66
2022/11/01 11:02:05;;;;;;;1.50;0.60;;;17.20;99.90;;;;;;5012860;28;20414;-66
2022/11/01 11:04:31;;;;;;;1.53;0.70;;;17.20;99.90;;;;;;5012908;28;20782;-66
2022/11/01 11:06:56;;;;;;;2.20;0.73;;;17.20;99.90;;;;;;5012914;28;21085;-66
2022/11/01 11:09:33;;;;;;;1.40;0.60;;;17.20;99.90;;;;;;5003391;28;20179;-66
2022/11/01 11:12:04;;;;;;;2.50;1.00;;;17.30;99.90;;;;;;5010922;28;20733;-66
2022/11/01 11:14:32;;;;;;;1.67;0.60;;;17.40;99.90;;;;;;5011927;28;20435;-66
2022/11/01 11:16:58;;;;;;;1.70;0.70;;;17.50;99.90;;;;;;5012125;28;20426;-66
2022/11/01 11:19:32;;;;;;;2.43;0.70;;;17.50;99.90;;;;;;5010271;28;20529;-66
2022/11/01 11:21:58;;;;;;;1.80;0.67;;;17.50;99.90;;;;;;5006305;28;20851;-66
2022/11/01 11:24:29;;;;;;;4.23;0.83;;;17.50;99.90;;;;;;5012575;28;20425;-66
2022/11/01 11:26:56;;;;;;;4.70;1.30;;;17.50;99.90;;;;;;5011994;28;20426;-66
2022/11/01 11:29:30;;;;;;;8.20;1.30;;;17.50;99.90;;;;;;5012545;28;20927;-66
2022/11/01 11:31:58;;;;;;;3.70;0.57;;;17.50;99.90;;;;;;5010990;28;20421;-66
2022/11/01 11:34:33;;;;;;;4.40;0.70;;;17.50;99.90;;;;;;5011987;28;20426;-66
2022/11/01 11:37:02;;;;;;;1.83;0.70;;;17.40;99.90;;;;;;5008346;28;21044;-66
2022/11/01 11:39:34;;;;;;;2.60;0.70;;;17.30;99.90;;;;;;5003450;28;20457;-66
2022/11/01 11:42:17;;;;;;;2.00;0.90;;;17.40;99.90;;;;;;5011605;28;20418;-66
2022/11/01 11:44:49;;;;;;;1.43;0.57;;;17.50;99.90;;;;;;5012487;28;20816;-66
2022/11/01 11:47:21;;;;;;;2.53;0.70;;;17.40;99.90;;;;;;5012548;28;20508;-66
2022/11/01 11:49:49;;;;;;;2.30;0.60;;;17.30;99.90;;;;;;5012242;28;20520;-66
2022/11/01 11:52:37;;;;;;;1.97;0.60;;;17.20;99.90;;;;;;5011839;28;20906;-66
2022/11/01 11:55:03;;;;;;;2.07;0.80;;;17.20;99.90;;;;;;5012219;28;20434;-66
2022/11/01 11:57:29;;;;;;;2.57;0.70;;;17.20;99.90;;;;;;5010246;28;20523;-66
2022/11/01 12:00:04;;;;;;;2.57;0.80;;;17.30;99.90;;;;;;5012140;28;20902;-66
2022/11/01 12:02:40;;;;;;;1.80;0.70;;;17.20;99.90;;;;;;5011589;28;20190;-66
2022/11/01 12:05:15;;;;;;;1.27;0.53;;;17.40;99.90;;;;;;5011617;28;20953;-66
2022/11/01 12:07:48;;;;;;;1.50;0.60;;;17.30;99.90;;;;;;5009678;28;20429;-66
2022/11/01 12:10:31;;;;;;;2.67;0.83;;;17.30;99.90;;;;;;5004896;28;20429;-66
2022/11/01 12:12:57;;;;;;;1.40;0.50;;;17.40;99.90;;;;;;5005372;28;20420;-66
2022/11/01 12:15:33;;;;;;;2.50;1.30;;;17.30;99.90;;;;;;5011945;28;20449;-66
2022/11/01 12:18:15;;;;;;;1.77;0.70;;;17.40;99.90;;;;;;5012100;28;20458;-67
2022/11/01 12:20:46;;;;;;;1.43;0.70;;;17.40;99.90;;;;;;5002643;28;20424;-66
2022/11/01 12:23:33;;;;;;;2.77;0.80;;;17.50;99.90;;;;;;5011480;28;20560;-67
2022/11/01 12:26:04;;;;;;;1.73;0.70;;;17.70;99.90;;;;;;5006910;28;20532;-67
2022/11/01 12:28:38;;;;;;;1.60;0.80;;;17.80;99.90;;;;;;5006546;28;20426;-67
2022/11/01 12:31:12;;;;;;;1.87;0.80;;;17.90;99.90;;;;;;5015231;28;20417;-67
2022/11/01 12:34:21;;;;;;;1.40;0.60;;;17.90;99.90;;;;;;5015480;28;20448;-67
2022/11/01 12:36:51;;;;;;;3.67;0.73;;;17.80;99.90;;;;;;4954840;29;20440;-67
2022/11/01 12:39:17;;;;;;;1.70;0.77;;;17.70;99.90;;;;;;5004951;28;20481;-67
2022/11/01 12:41:59;;;;;;;1.50;0.60;;;17.60;99.90;;;;;;5014899;28;20820;-67
2022/11/01 12:44:27;;;;;;;1.80;0.60;;;17.50;99.90;;;;;;5015517;28;20270;-66
2022/11/01 12:47:08;;;;;;;1.37;0.50;;;17.50;99.90;;;;;;5014044;28;20479;-67
2022/11/01 12:49:34;;;;;;;1.30;0.53;;;17.60;99.90;;;;;;5014240;28;20433;-67
2022/11/01 12:52:22;;;;;;;5.63;0.87;;;17.60;99.90;;;;;;5013306;28;20438;-67
2022/11/01 12:55:06;;;;;;;4.90;0.60;;;17.40;99.90;;;;;;5014690;28;20260;-67
2022/11/01 12:57:32;;;;;;;6.10;1.10;;;17.30;99.90;;;;;;5014956;28;20492;-67
2022/11/01 12:59:59;;;;;;;1.40;0.67;;;17.10;99.90;;;;;;5015590;28;20446;-67
2022/11/01 13:02:46;;;;;;;1.90;0.83;;;17.10;99.90;;;;;;5014879;28;20269;-66
2022/11/01 13:05:17;;;;;;;1.60;0.80;;;17.10;99.90;;;;;;5004377;28;20410;-67
2022/11/01 13:07:56;;;;;;;2.07;1.10;;;17.10;99.90;;;;;;5012901;28;20426;-67
2022/11/01 13:10:34;;;;;;;2.40;0.80;;;17.10;99.90;;;;;;5007979;28;20422;-66
2022/11/01 13:13:18;;;;;;;1.60;0.70;;;17.00;99.90;;;;;;5014205;28;20893;-67
2022/11/01 13:15:53;;;;;;;1.20;0.50;;;17.00;99.90;;;;;;5011753;28;20421;-66